Sunday, November 18, 2018, 2:22 PM GMT
Back to Local

CWTN, Cap Tourmente

Location: , , Canada Lat: 47.067
Local Time: 2:22 PM GMT (14:22 GMT) Lon: -70.8
Time Zone: GMT Elev: 19 ft

Show me the last for .
Show Coded

Time T Td Feel RH Dir Speed Gust Alt SLP Vis Weather Sky Remarks
2018-11-18 14:00 20 4 12 48 230° 6 - - 30.34 0 None
2018-11-18 13:00 19 7 12 59 270° 5 - - 30.33 0 None
2018-11-18 12:00 12 8 - 83 300° 2 - - 30.30 0 None
2018-11-18 11:00 17 9 12 70 320° 3 - - 30.27 0 None
2018-11-18 10:00 14 10 - 82 340° 2 - - 30.25 0 None
2018-11-18 09:00 12 9 - 86 290° 2 - - 30.24 0 None
2018-11-18 08:00 15 10 - 83 300° 2 - - 30.22 0 None
2018-11-18 07:00 13 10 8 85 320° 3 - - 30.21 0 None
2018-11-18 06:00 13 10 8 86 290° 3 - - 30.18 0 None
2018-11-18 05:00 14 11 - 85 330° 2 - - 30.16 0 None
2018-11-18 04:00 16 13 - 86 - Calm - - 30.14 0 None
2018-11-18 03:00 17 14 - 86 330° 1 - - 30.12 0 None
2018-11-18 02:00 19 15 - 86 350° 1 - - 30.09 0 None
2018-11-18 01:00 21 18 - 87 240° 2 - - 30.06 0 None
2018-11-18 00:00 24 18 - 78 310° 1 - - 30.04 0 None
2018-11-17 23:00 29 17 23 59 280° 6 - - 30.01 0 None
2018-11-17 22:00 32 19 27 58 270° 5 - - 29.96 0 None
2018-11-17 21:00 32 25 27 76 270° 5 - - 29.93 0 None
2018-11-17 20:00 33 25 30 73 260° 3 - - 29.90 0 None
2018-11-17 19:00 33 25 27 71 270° 7 - - 29.90 0 None
2018-11-17 18:00 34 24 26 68 260° 9 - - 29.88 0 Peak wind: 20 mph (18 kts) from 250° at 26 min
2018-11-17 17:00 33 24 26 66 260° 9 - - 29.87 0 None
2018-11-17 16:00 32 24 20 71 260° 8 20 - 29.85 0 Peak wind: 19 mph (17 kts) from 260° at 56 min
2018-11-17 15:00 30 22 23 73 270° 7 - - 29.85 0 None

Support USWX by starting your Amazon purchase here.